Time;durP1;ratioP1;P1;durP2;ratioP2;P2;SDS_P1;SDS_P2;PMS_P1;PMS_P2;Temp;Humidity;BMP_temperature;BMP_pressure;BME280_temperature;BME280_humidity;BME280_pressure;Samples;Min_cycle;Max_cycle;Signal;HPM_P1;HPM_P2
2022/04/03 00:00:38;;;;;;;1.20;1.10;;;17.60;40.40;;;;;;5054498;28;20183;-91
2022/04/03 00:03:04;;;;;;;1.00;0.90;;;17.60;40.50;;;;;;5054105;28;20643;-91
2022/04/03 00:05:38;;;;;;;1.30;1.00;;;17.50;40.50;;;;;;5055196;28;20181;-90
2022/04/03 00:08:07;;;;;;;1.10;0.90;;;17.50;40.60;;;;;;5054168;28;20191;-91
2022/04/03 00:10:34;;;;;;;1.10;1.00;;;17.50;40.60;;;;;;5053203;28;20189;-90
2022/04/03 00:12:59;;;;;;;1.33;1.20;;;17.40;40.70;;;;;;5054544;28;20209;-91
2022/04/03 00:15:25;;;;;;;1.10;0.90;;;17.40;40.70;;;;;;5054813;28;20180;-91
2022/04/03 00:17:51;;;;;;;1.00;0.90;;;17.40;40.70;;;;;;5054214;28;20475;-91
2022/04/03 00:20:17;;;;;;;1.33;0.90;;;17.30;40.70;;;;;;5054041;28;20177;-91
2022/04/03 00:22:48;;;;;;;1.37;1.00;;;17.30;40.80;;;;;;5054303;28;20195;-91
2022/04/03 00:25:14;;;;;;;1.03;0.93;;;17.30;40.80;;;;;;5052800;28;20179;-91
2022/04/03 00:27:40;;;;;;;0.80;0.80;;;17.30;40.80;;;;;;5052428;28;20182;-91
2022/04/03 00:30:09;;;;;;;1.27;1.03;;;17.30;40.80;;;;;;5055238;28;20451;-91
2022/04/03 00:32:35;;;;;;;1.20;1.10;;;17.20;40.80;;;;;;5053128;28;20204;-91
2022/04/03 00:35:02;;;;;;;0.90;0.83;;;17.20;40.80;;;;;;5054071;28;20464;-91
2022/04/03 00:37:28;;;;;;;1.07;0.80;;;17.30;40.90;;;;;;5053888;28;20175;-91
2022/04/03 00:39:53;;;;;;;1.13;0.90;;;17.20;40.80;;;;;;5052768;28;20174;-91
2022/04/03 00:42:19;;;;;;;0.80;0.80;;;17.20;40.90;;;;;;5053560;28;20177;-91
2022/04/03 00:44:45;;;;;;;1.00;0.90;;;17.20;40.90;;;;;;5053669;28;20169;-91
2022/04/03 00:47:15;;;;;;;1.07;0.97;;;17.20;40.90;;;;;;5052757;28;20178;-91
2022/04/03 00:49:40;;;;;;;1.23;1.00;;;17.10;40.90;;;;;;5053812;28;20227;-91
2022/04/03 00:52:08;;;;;;;1.17;0.97;;;17.10;40.90;;;;;;5053249;28;20610;-90
2022/04/03 00:54:34;;;;;;;0.90;0.90;;;17.10;41.00;;;;;;5053223;28;20575;-91
2022/04/03 00:57:05;;;;;;;1.43;0.93;;;17.10;41.00;;;;;;5053089;28;20169;-91
2022/04/03 00:59:30;;;;;;;1.03;0.97;;;17.00;41.00;;;;;;5054097;28;20276;-91
2022/04/03 01:01:56;;;;;;;1.10;1.00;;;17.00;41.00;;;;;;5053735;28;20269;-91
2022/04/03 01:04:22;;;;;;;1.10;0.90;;;17.00;41.10;;;;;;5054068;28;20168;-92
2022/04/03 01:06:48;;;;;;;1.73;0.90;;;17.00;41.10;;;;;;5053838;28;20203;-92
2022/04/03 01:09:14;;;;;;;0.90;0.90;;;16.90;41.10;;;;;;5052522;28;20172;-92
2022/04/03 01:11:40;;;;;;;1.10;1.00;;;16.90;41.20;;;;;;5053717;28;20173;-92
2022/04/03 01:14:06;;;;;;;0.93;0.83;;;16.90;41.20;;;;;;5052976;28;20206;-91
2022/04/03 01:16:33;;;;;;;1.17;0.87;;;16.80;41.20;;;;;;5053584;28;20192;-91
2022/04/03 01:18:59;;;;;;;1.10;1.00;;;16.80;41.20;;;;;;5053845;28;20185;-92
2022/04/03 01:21:24;;;;;;;0.90;0.90;;;16.80;41.30;;;;;;5053816;28;20167;-91
2022/04/03 01:23:50;;;;;;;0.83;0.83;;;16.70;41.30;;;;;;5053985;28;20186;-91
2022/04/03 01:26:16;;;;;;;0.93;0.83;;;16.70;41.30;;;;;;5053319;28;20184;-91
2022/04/03 01:28:43;;;;;;;0.80;0.80;;;16.70;41.30;;;;;;5053483;28;20176;-92
2022/04/03 01:31:08;;;;;;;0.70;0.70;;;16.60;41.40;;;;;;5052601;28;20176;-92
2022/04/03 01:33:34;;;;;;;1.57;1.00;;;16.60;41.40;;;;;;5052179;28;20235;-92
2022/04/03 01:36:00;;;;;;;1.00;0.90;;;16.60;41.50;;;;;;5054238;28;20173;-91
2022/04/03 01:38:26;;;;;;;0.83;0.83;;;16.50;41.50;;;;;;5054080;28;20180;-91
2022/04/03 01:40:52;;;;;;;0.83;0.83;;;16.40;41.50;;;;;;5053596;28;20454;-91
2022/04/03 01:43:17;;;;;;;0.80;0.80;;;16.40;41.60;;;;;;5051069;28;20262;-91
2022/04/03 01:45:43;;;;;;;0.87;0.87;;;16.40;41.60;;;;;;5051634;28;20577;-91
2022/04/03 01:48:09;;;;;;;0.80;0.80;;;16.30;41.70;;;;;;5051959;28;20179;-91
2022/04/03 01:50:36;;;;;;;0.90;0.90;;;16.30;41.70;;;;;;5051921;28;20541;-91
2022/04/03 01:53:03;;;;;;;0.80;0.80;;;16.30;41.80;;;;;;5051563;28;20216;-91
2022/04/03 01:55:29;;;;;;;1.80;0.73;;;16.20;41.70;;;;;;5052108;28;20165;-91
2022/04/03 01:57:55;;;;;;;1.43;0.90;;;16.20;41.80;;;;;;5052683;28;20202;-91
2022/04/03 02:00:22;;;;;;;0.67;0.67;;;16.20;41.80;;;;;;5052268;28;20544;-91
2022/04/03 02:02:50;;;;;;;0.93;0.87;;;16.20;41.90;;;;;;5052914;28;20176;-91
2022/04/03 02:05:16;;;;;;;1.77;0.90;;;16.10;41.80;;;;;;5053250;28;20443;-91
2022/04/03 02:07:42;;;;;;;0.93;0.73;;;16.10;41.90;;;;;;5054070;28;20175;-92
2022/04/03 02:10:09;;;;;;;1.67;0.90;;;16.10;41.90;;;;;;5059973;28;20169;-92
2022/04/03 02:12:39;;;;;;;1.03;0.87;;;16.10;41.90;;;;;;5059287;28;20270;-93
2022/04/03 02:15:06;;;;;;;1.33;1.00;;;16.00;41.90;;;;;;5058640;28;20168;-93
2022/04/03 02:17:32;;;;;;;0.80;0.80;;;16.00;41.90;;;;;;5058951;28;20532;-92
2022/04/03 02:19:58;;;;;;;1.00;0.90;;;16.00;42.00;;;;;;5058433;28;20182;-92
2022/04/03 02:22:23;;;;;;;0.80;0.80;;;16.00;42.00;;;;;;5057243;28;20183;-92
2022/04/03 02:24:49;;;;;;;1.37;0.90;;;16.00;42.00;;;;;;5057974;28;20257;-92
2022/04/03 02:27:15;;;;;;;1.27;1.00;;;15.90;42.00;;;;;;5058698;28;20520;-93
2022/04/03 02:29:41;;;;;;;1.00;0.80;;;15.90;42.00;;;;;;5058584;28;20173;-92
2022/04/03 02:32:07;;;;;;;0.90;0.90;;;15.90;42.00;;;;;;5059020;28;20168;-92
2022/04/03 02:34:33;;;;;;;0.83;0.73;;;16.00;42.00;;;;;;5058239;28;20212;-92
2022/04/03 02:36:58;;;;;;;0.83;0.83;;;16.10;41.90;;;;;;5058276;28;20214;-92
2022/04/03 02:39:24;;;;;;;1.00;0.90;;;16.30;41.80;;;;;;5059105;28;20226;-92
2022/04/03 02:41:50;;;;;;;0.90;0.90;;;16.30;41.60;;;;;;5057494;28;20183;-92
2022/04/03 02:44:17;;;;;;;0.93;0.77;;;16.30;41.60;;;;;;5057210;28;20186;-91
2022/04/03 02:46:42;;;;;;;1.43;0.90;;;16.30;41.60;;;;;;5056551;28;20278;-91
2022/04/03 02:49:11;;;;;;;0.70;0.70;;;16.20;41.50;;;;;;5056826;28;20279;-91
2022/04/03 02:51:37;;;;;;;0.83;0.70;;;16.30;41.60;;;;;;5056804;28;20517;-92
2022/04/03 02:54:04;;;;;;;0.90;0.90;;;16.20;41.50;;;;;;5056496;28;20204;-91
2022/04/03 02:56:30;;;;;;;0.80;0.80;;;16.20;41.60;;;;;;5056048;28;20175;-91
2022/04/03 02:58:56;;;;;;;1.03;0.90;;;16.20;41.60;;;;;;5056757;28;20169;-91
2022/04/03 03:01:22;;;;;;;0.83;0.70;;;16.20;41.60;;;;;;5056914;28;20222;-91
2022/04/03 03:03:48;;;;;;;0.73;0.73;;;16.20;41.70;;;;;;5055495;28;20559;-91
2022/04/03 03:06:14;;;;;;;0.77;0.73;;;16.10;41.60;;;;;;5056307;28;20172;-91
2022/04/03 03:08:41;;;;;;;1.40;0.83;;;16.10;41.60;;;;;;5055411;28;20190;-91
2022/04/03 03:11:07;;;;;;;0.80;0.80;;;16.10;41.70;;;;;;5055035;28;20180;-91
2022/04/03 03:13:33;;;;;;;1.00;0.87;;;16.10;41.70;;;;;;5055819;28;20235;-91
2022/04/03 03:15:59;;;;;;;0.93;0.87;;;16.10;41.70;;;;;;5055876;28;20268;-91
2022/04/03 03:18:25;;;;;;;0.80;0.80;;;16.00;41.70;;;;;;5057087;28;20160;-91
2022/04/03 03:20:51;;;;;;;0.70;0.70;;;16.00;41.70;;;;;;5055677;28;20712;-91
2022/04/03 03:23:17;;;;;;;0.80;0.80;;;16.00;41.80;;;;;;5055257;28;20177;-91
2022/04/03 03:25:45;;;;;;;2.00;0.90;;;15.90;41.80;;;;;;5056258;28;20185;-91
2022/04/03 03:28:11;;;;;;;0.80;0.80;;;15.90;41.80;;;;;;5055199;28;20213;-91
2022/04/03 03:30:37;;;;;;;1.13;0.93;;;15.90;41.80;;;;;;5056506;28;20230;-91
2022/04/03 03:33:03;;;;;;;0.73;0.73;;;15.90;41.80;;;;;;5055776;28;20293;-91
2022/04/03 03:35:29;;;;;;;0.70;0.70;;;15.80;41.80;;;;;;5055572;28;20171;-91
2022/04/03 03:37:55;;;;;;;0.87;0.80;;;16.00;41.80;;;;;;5055864;28;20175;-91
2022/04/03 03:40:21;;;;;;;0.77;0.77;;;16.10;41.60;;;;;;5056138;28;20176;-92
2022/04/03 03:42:47;;;;;;;0.87;0.73;;;16.20;41.50;;;;;;5055508;28;20179;-91
2022/04/03 03:45:14;;;;;;;0.70;0.70;;;16.20;41.40;;;;;;5055651;28;20431;-91
2022/04/03 03:47:42;;;;;;;0.87;0.80;;;16.20;41.40;;;;;;5056089;28;20574;-92
2022/04/03 03:50:08;;;;;;;0.80;0.70;;;16.20;41.40;;;;;;5056019;28;20229;-92
2022/04/03 03:52:34;;;;;;;0.80;0.80;;;16.20;41.50;;;;;;5056317;28;20209;-91
2022/04/03 03:55:00;;;;;;;0.70;0.70;;;16.20;41.50;;;;;;5055556;28;20199;-91
2022/04/03 03:57:25;;;;;;;1.00;0.90;;;16.10;41.50;;;;;;5055559;28;20176;-91
2022/04/03 03:59:52;;;;;;;0.83;0.83;;;16.10;41.50;;;;;;5055065;28;20312;-91
2022/04/03 04:02:18;;;;;;;1.20;0.87;;;16.10;41.50;;;;;;5055035;28;20238;-92
2022/04/03 04:04:44;;;;;;;0.70;0.70;;;16.00;41.50;;;;;;5055080;28;20204;-92
2022/04/03 04:07:10;;;;;;;0.73;0.73;;;16.00;41.60;;;;;;5055545;28;20211;-92
2022/04/03 04:09:37;;;;;;;0.77;0.70;;;16.00;41.60;;;;;;5054713;28;20241;-91
2022/04/03 04:12:03;;;;;;;0.90;0.80;;;15.90;41.60;;;;;;5054683;28;20180;-92
2022/04/03 04:14:30;;;;;;;1.43;0.90;;;15.90;41.60;;;;;;5055842;28;20218;-92
2022/04/03 04:16:55;;;;;;;0.93;0.90;;;15.90;41.70;;;;;;5055333;28;20512;-92
2022/04/03 04:19:21;;;;;;;0.70;0.70;;;15.80;41.60;;;;;;5054887;28;20211;-92
2022/04/03 04:21:46;;;;;;;0.80;0.80;;;15.80;41.70;;;;;;5055250;28;20172;-91
2022/04/03 04:24:12;;;;;;;0.80;0.80;;;15.80;41.70;;;;;;5054613;28;20172;-91
2022/04/03 04:26:39;;;;;;;0.77;0.77;;;15.70;41.70;;;;;;5055155;28;20190;-91
2022/04/03 04:29:05;;;;;;;1.90;0.83;;;15.70;41.70;;;;;;5054492;28;20173;-91
2022/04/03 04:31:30;;;;;;;1.27;1.00;;;15.60;41.80;;;;;;5053511;28;20275;-91
2022/04/03 04:33:56;;;;;;;0.73;0.73;;;15.60;41.90;;;;;;5054809;28;20230;-91
2022/04/03 04:36:21;;;;;;;0.63;0.63;;;15.80;41.90;;;;;;5054477;28;20470;-91
2022/04/03 04:38:47;;;;;;;0.70;0.70;;;18.60;40.50;;;;;;5055439;28;20166;-91
2022/04/03 04:41:13;;;;;;;1.10;1.00;;;19.40;38.40;;;;;;5053487;28;20176;-91
2022/04/03 04:43:40;;;;;;;0.83;0.70;;;19.70;37.80;;;;;;5055105;28;20367;-91
2022/04/03 04:46:05;;;;;;;0.77;0.77;;;19.80;37.60;;;;;;5054385;28;20295;-91
2022/04/03 04:48:32;;;;;;;0.60;0.60;;;20.00;37.50;;;;;;5054650;28;20535;-92
2022/04/03 04:50:58;;;;;;;0.80;0.70;;;20.20;37.40;;;;;;5054487;28;20174;-91
2022/04/03 04:53:23;;;;;;;0.63;0.63;;;20.50;37.20;;;;;;5054324;28;20231;-92
2022/04/03 04:55:49;;;;;;;0.93;0.83;;;20.70;37.00;;;;;;5054030;28;20202;-92
2022/04/03 04:58:15;;;;;;;0.90;0.90;;;20.90;36.80;;;;;;5054544;28;20183;-91
2022/04/03 05:00:41;;;;;;;0.60;0.60;;;21.20;36.70;;;;;;5053598;28;20259;-91
2022/04/03 05:03:07;;;;;;;0.70;0.70;;;21.40;36.40;;;;;;5054132;28;20183;-92
2022/04/03 05:05:33;;;;;;;0.80;0.80;;;21.70;36.30;;;;;;5054041;28;20515;-92
2022/04/03 05:07:59;;;;;;;1.10;1.00;;;22.00;36.10;;;;;;5054962;28;20186;-93
2022/04/03 05:10:26;;;;;;;0.80;0.80;;;22.30;35.90;;;;;;5056306;28;20283;-93
2022/04/03 05:12:53;;;;;;;0.70;0.60;;;22.40;35.60;;;;;;5056526;28;20481;-93
2022/04/03 05:15:19;;;;;;;0.70;0.70;;;22.50;35.70;;;;;;5056877;28;20539;-93
2022/04/03 05:17:45;;;;;;;0.67;0.67;;;22.50;35.60;;;;;;5057684;28;20185;-93
2022/04/03 05:20:12;;;;;;;1.00;0.90;;;22.70;35.50;;;;;;5056795;28;20433;-93
2022/04/03 05:22:42;;;;;;;2.13;0.93;;;23.00;35.40;;;;;;5056874;28;20191;-93
2022/04/03 05:25:10;;;;;;;0.70;0.70;;;23.30;35.20;;;;;;5057409;28;20196;-93
2022/04/03 05:27:37;;;;;;;0.80;0.80;;;23.30;35.00;;;;;;5056664;28;20190;-93
2022/04/03 05:30:03;;;;;;;0.80;0.80;;;23.30;35.00;;;;;;5056853;28;20204;-93
2022/04/03 05:32:31;;;;;;;0.77;0.77;;;23.20;35.10;;;;;;5057059;28;20217;-92
2022/04/03 05:34:58;;;;;;;1.30;0.90;;;23.20;35.10;;;;;;5057075;28;20550;-93
2022/04/03 05:37:24;;;;;;;0.80;0.80;;;23.10;35.20;;;;;;5056962;28;20454;-93
2022/04/03 05:39:51;;;;;;;0.80;0.80;;;23.00;35.30;;;;;;5056625;28;20222;-93
2022/04/03 05:42:18;;;;;;;1.27;0.93;;;22.70;35.50;;;;;;5055941;28;20191;-93
2022/04/03 05:44:44;;;;;;;0.97;0.87;;;22.50;35.70;;;;;;5056944;28;20176;-93
2022/04/03 05:47:10;;;;;;;1.27;0.90;;;22.20;35.80;;;;;;5057062;28;20201;-93
2022/04/03 05:49:37;;;;;;;0.80;0.80;;;22.00;36.00;;;;;;5057088;28;20204;-93
2022/04/03 05:52:04;;;;;;;1.37;0.83;;;21.70;36.30;;;;;;5056033;28;20183;-93
2022/04/03 05:54:29;;;;;;;0.80;0.80;;;21.40;36.50;;;;;;5055980;28;20191;-92
2022/04/03 05:56:55;;;;;;;1.10;0.90;;;21.30;36.80;;;;;;5055911;28;20173;-93
2022/04/03 05:59:21;;;;;;;0.77;0.77;;;21.10;36.90;;;;;;5055086;28;20568;-92
2022/04/03 06:01:50;;;;;;;0.80;0.80;;;21.00;37.10;;;;;;5054250;28;20438;-92
2022/04/03 06:04:16;;;;;;;0.93;0.93;;;20.80;37.20;;;;;;5055029;28;20249;-92
2022/04/03 06:06:42;;;;;;;1.00;0.87;;;20.70;37.30;;;;;;5054652;28;20187;-92
2022/04/03 06:09:08;;;;;;;0.80;0.80;;;20.50;37.50;;;;;;5054771;28;20189;-92
2022/04/03 06:11:34;;;;;;;0.70;0.70;;;20.40;37.70;;;;;;5053523;28;20230;-92
2022/04/03 06:14:03;;;;;;;0.97;0.90;;;20.20;37.80;;;;;;5052956;28;20242;-92
2022/04/03 06:16:29;;;;;;;0.80;0.80;;;20.10;37.90;;;;;;5053151;28;20173;-91
2022/04/03 06:18:55;;;;;;;0.80;0.80;;;20.00;38.10;;;;;;5053216;28;20212;-91
2022/04/03 06:21:22;;;;;;;1.17;1.07;;;19.90;38.20;;;;;;5051585;28;20238;-91
2022/04/03 06:23:48;;;;;;;1.20;1.10;;;19.70;38.30;;;;;;5052681;28;20184;-91
2022/04/03 06:26:14;;;;;;;0.90;0.80;;;19.80;38.20;;;;;;5052915;28;20347;-91
2022/04/03 06:28:39;;;;;;;1.00;0.90;;;20.20;38.10;;;;;;5052236;28;20332;-91
2022/04/03 06:31:05;;;;;;;1.20;1.10;;;20.80;37.50;;;;;;5052447;28;20172;-91
2022/04/03 06:33:31;;;;;;;1.00;1.00;;;21.70;36.80;;;;;;5052143;28;20670;-91
2022/04/03 06:35:57;;;;;;;1.00;1.00;;;22.60;36.10;;;;;;5050968;28;20182;-91
2022/04/03 06:38:23;;;;;;;1.50;1.07;;;23.60;35.20;;;;;;5053472;28;20165;-90
2022/04/03 06:40:54;;;;;;;1.93;1.07;;;24.50;34.40;;;;;;5052383;28;20267;-90
2022/04/03 06:43:21;;;;;;;0.70;0.70;;;25.10;33.70;;;;;;5053598;28;20421;-91
2022/04/03 06:45:48;;;;;;;1.80;1.00;;;25.20;33.50;;;;;;5052238;28;20594;-90
2022/04/03 06:48:14;;;;;;;0.90;0.90;;;25.30;33.40;;;;;;5053004;28;20173;-91
2022/04/03 06:50:40;;;;;;;0.90;0.90;;;25.20;33.40;;;;;;5054401;28;20695;-90
2022/04/03 06:53:05;;;;;;;1.97;1.10;;;25.30;33.40;;;;;;5052444;28;20218;-91
2022/04/03 06:55:32;;;;;;;1.10;0.90;;;25.40;33.30;;;;;;5055793;28;20168;-91
2022/04/03 06:57:57;;;;;;;1.00;1.00;;;25.40;33.30;;;;;;5056093;28;20177;-90
2022/04/03 07:00:23;;;;;;;2.50;0.90;;;25.30;33.30;;;;;;5056257;28;20360;-91
2022/04/03 07:02:49;;;;;;;1.10;1.00;;;25.20;33.40;;;;;;5055212;28;20179;-90
2022/04/03 07:05:15;;;;;;;1.00;1.00;;;25.10;33.50;;;;;;5055764;28;20180;-91
2022/04/03 07:07:41;;;;;;;1.00;0.90;;;24.80;33.70;;;;;;5056127;28;20165;-90
2022/04/03 07:10:09;;;;;;;1.60;1.10;;;24.50;33.90;;;;;;5056112;28;20179;-90
2022/04/03 07:12:35;;;;;;;1.20;1.10;;;24.30;34.20;;;;;;5055126;28;20200;-90
2022/04/03 07:15:03;;;;;;;2.03;1.07;;;24.00;34.40;;;;;;5054561;28;20172;-90
2022/04/03 07:17:29;;;;;;;1.10;1.00;;;23.70;34.70;;;;;;5055354;28;20167;-91
2022/04/03 07:19:54;;;;;;;1.10;1.00;;;23.50;34.90;;;;;;5055545;28;20172;-91
2022/04/03 07:22:20;;;;;;;2.77;1.10;;;23.30;35.20;;;;;;5055565;28;20186;-91
2022/04/03 07:24:46;;;;;;;1.23;1.00;;;23.10;35.40;;;;;;5056810;28;20196;-92
2022/04/03 07:27:12;;;;;;;1.10;1.00;;;22.90;35.70;;;;;;5058580;28;20247;-92
2022/04/03 07:29:38;;;;;;;1.37;1.10;;;22.70;36.00;;;;;;5057738;28;20284;-92
2022/04/03 07:32:04;;;;;;;2.20;1.00;;;22.60;36.20;;;;;;5058561;28;20349;-93
2022/04/03 07:34:30;;;;;;;1.10;1.00;;;22.40;36.40;;;;;;5057415;28;20212;-93
2022/04/03 07:36:56;;;;;;;3.40;1.10;;;22.30;36.70;;;;;;5057260;28;20169;-93
2022/04/03 07:39:23;;;;;;;1.97;1.17;;;22.10;36.80;;;;;;5058909;28;20164;-93
2022/04/03 07:41:49;;;;;;;2.13;1.20;;;22.00;37.00;;;;;;5057250;28;20169;-93
2022/04/03 07:44:15;;;;;;;2.03;1.10;;;21.90;37.10;;;;;;5056332;28;20176;-93
2022/04/03 07:46:40;;;;;;;4.27;1.30;;;21.90;37.20;;;;;;5056533;28;20173;-94
2022/04/03 07:49:06;;;;;;;2.87;1.40;;;21.80;37.30;;;;;;5056511;28;20282;-93
2022/04/03 07:51:32;;;;;;;3.67;1.40;;;21.80;37.40;;;;;;5056421;28;20168;-93
2022/04/03 07:53:59;;;;;;;3.50;1.20;;;21.90;37.70;;;;;;5056216;28;20219;-93
2022/04/03 07:56:25;;;;;;;4.00;1.50;;;22.20;37.10;;;;;;5056284;28;20183;-93
2022/04/03 07:58:50;;;;;;;3.03;1.60;;;22.70;36.80;;;;;;5052996;28;20172;-91
2022/04/03 08:01:16;;;;;;;4.47;1.40;;;23.30;36.30;;;;;;5052820;28;20267;-91
2022/04/03 08:03:42;;;;;;;3.90;1.57;;;23.80;35.70;;;;;;5052978;28;20183;-91
2022/04/03 08:06:09;;;;;;;4.27;1.60;;;24.40;35.20;;;;;;5051832;28;20198;-92
2022/04/03 08:08:35;;;;;;;3.83;1.63;;;24.90;34.80;;;;;;5052626;28;20184;-91
2022/04/03 08:11:00;;;;;;;5.23;1.50;;;25.30;34.50;;;;;;5053103;28;20180;-92
2022/04/03 08:13:26;;;;;;;2.33;1.50;;;25.70;34.60;;;;;;5053071;28;20348;-92
2022/04/03 08:15:52;;;;;;;4.03;1.60;;;26.00;34.00;;;;;;5053107;28;20195;-91
2022/04/03 08:18:19;;;;;;;5.23;1.50;;;26.00;33.80;;;;;;5051308;28;20424;-91
2022/04/03 08:20:45;;;;;;;3.40;1.50;;;26.10;33.80;;;;;;5052601;28;20164;-92
2022/04/03 08:23:11;;;;;;;4.13;1.60;;;26.10;33.70;;;;;;5052989;28;20646;-92
2022/04/03 08:25:39;;;;;;;4.05;1.50;;;26.00;33.80;;;;;;5050545;28;20267;-92
2022/04/03 08:28:07;;;;;;;3.42;1.60;;;25.90;33.90;;;;;;5051156;28;20590;-92
2022/04/03 08:30:36;;;;;;;2.50;1.38;;;25.60;34.00;;;;;;5053682;28;20180;-93
2022/04/03 08:33:04;;;;;;;4.63;1.60;;;25.30;34.20;;;;;;5054017;28;20212;-93
2022/04/03 08:35:31;;;;;;;3.75;1.40;;;25.10;34.40;;;;;;5050677;28;20497;-92
2022/04/03 08:37:58;;;;;;;3.42;1.42;;;24.80;34.60;;;;;;5052415;28;20275;-92
2022/04/03 08:40:26;;;;;;;2.57;1.40;;;24.50;35.00;;;;;;5051300;28;20200;-92
2022/04/03 08:42:54;;;;;;;3.03;1.63;;;24.20;35.20;;;;;;5053753;28;20180;-92
2022/04/03 08:45:20;;;;;;;2.03;1.50;;;23.40;35.70;;;;;;5052510;28;20173;-93
2022/04/03 08:47:51;;;;;;;1.53;1.30;;;22.80;36.30;;;;;;5052691;28;20176;-92
2022/04/03 08:50:19;;;;;;;1.80;1.47;;;22.50;36.80;;;;;;5053085;28;20172;-93
2022/04/03 08:52:47;;;;;;;2.70;1.43;;;22.10;37.00;;;;;;5052304;28;20222;-93
2022/04/03 08:55:13;;;;;;;1.50;1.20;;;21.90;37.30;;;;;;5052369;28;20172;-92
2022/04/03 08:57:39;;;;;;;2.13;1.57;;;21.90;37.50;;;;;;5052392;28;20668;-92
2022/04/03 09:00:06;;;;;;;3.10;1.50;;;21.80;37.50;;;;;;5052431;28;20168;-92
2022/04/03 09:02:32;;;;;;;2.43;1.30;;;21.60;37.70;;;;;;5050620;28;20172;-92
2022/04/03 09:04:58;;;;;;;3.17;1.60;;;21.60;37.80;;;;;;5052432;28;20184;-92
2022/04/03 09:07:24;;;;;;;3.20;1.57;;;21.20;38.10;;;;;;5051379;28;20199;-92
2022/04/03 09:10:05;;;;;;;7.50;1.90;;;20.90;38.50;;;;;;5042621;28;20195;-93
2022/04/03 09:12:31;;;;;;;2.70;1.47;;;20.60;38.80;;;;;;5053267;28;20169;-92
2022/04/03 09:14:58;;;;;;;6.80;1.40;;;20.40;39.00;;;;;;5053034;28;20478;-92
2022/04/03 09:17:38;;;;;;;2.17;1.50;;;20.20;39.20;;;;;;5052809;28;20370;-92
2022/04/03 09:20:09;;;;;;;2.70;1.43;;;20.10;39.50;;;;;;5052513;28;20247;-92
2022/04/03 09:22:37;;;;;;;3.83;1.47;;;20.00;39.60;;;;;;5052450;28;20221;-92
2022/04/03 09:25:05;;;;;;;2.27;1.33;;;20.20;39.50;;;;;;5051822;28;20177;-92
2022/04/03 09:27:55;;;;;;;3.93;1.67;;;20.90;39.00;;;;;;5050931;28;20183;-92
2022/04/03 09:30:33;;;;;;;2.70;1.40;;;21.90;38.00;;;;;;5042467;28;20216;-91
2022/04/03 09:33:01;;;;;;;1.87;1.10;;;22.60;37.30;;;;;;5052237;28;20260;-91
2022/04/03 09:35:31;;;;;;;1.80;1.23;;;23.30;36.60;;;;;;5052056;28;20176;-92
2022/04/03 09:38:15;;;;;;;1.20;1.10;;;23.90;36.00;;;;;;5051656;28;20188;-93
2022/04/03 09:40:47;;;;;;;1.30;1.20;;;24.50;35.50;;;;;;5051073;28;20176;-93
2022/04/03 09:43:19;;;;;;;2.20;1.20;;;24.80;35.00;;;;;;5050180;28;20183;-93
2022/04/03 09:45:49;;;;;;;1.53;1.23;;;24.80;34.90;;;;;;5050341;28;20185;-92
2022/04/03 09:48:19;;;;;;;1.40;1.20;;;24.70;35.00;;;;;;5048986;28;20184;-92
2022/04/03 09:51:08;;;;;;;2.43;1.40;;;24.60;35.00;;;;;;5049237;28;20404;-92
2022/04/03 09:53:47;;;;;;;4.50;1.87;;;24.50;35.20;;;;;;5050032;28;20292;-92
2022/04/03 09:56:26;;;;;;;1.27;1.17;;;24.20;35.30;;;;;;5049089;28;20179;-93
2022/04/03 09:58:52;;;;;;;1.77;1.13;;;24.00;35.50;;;;;;5047899;28;20266;-92
2022/04/03 10:01:36;;;;;;;1.83;1.30;;;23.70;35.70;;;;;;5048771;28;20267;-92
2022/04/03 10:04:03;;;;;;;2.47;1.17;;;23.30;36.10;;;;;;5048790;28;20218;-92
2022/04/03 10:06:31;;;;;;;2.10;1.10;;;22.90;36.40;;;;;;5048694;28;20333;-93
2022/04/03 10:09:00;;;;;;;4.00;1.60;;;22.60;36.80;;;;;;5049480;28;20205;-93
2022/04/03 10:11:27;;;;;;;1.50;1.20;;;22.20;37.10;;;;;;5049654;28;20283;-92
2022/04/03 10:13:54;;;;;;;1.80;1.10;;;21.90;37.40;;;;;;5050026;28;20207;-93
2022/04/03 10:16:20;;;;;;;1.60;1.20;;;21.70;37.70;;;;;;5049221;28;20168;-92
2022/04/03 10:18:48;;;;;;;2.47;1.60;;;21.50;37.90;;;;;;5048219;28;20172;-92
2022/04/03 10:21:33;;;;;;;1.40;1.20;;;21.20;38.20;;;;;;5048293;28;20542;-92
2022/04/03 10:24:29;;;;;;;2.10;1.10;;;21.00;38.40;;;;;;5048885;28;20450;-92
2022/04/03 10:27:14;;;;;;;2.63;1.37;;;20.80;38.60;;;;;;5047603;28;20265;-92
2022/04/03 10:29:42;;;;;;;3.90;1.43;;;20.60;38.90;;;;;;5049114;28;20218;-92
2022/04/03 10:32:09;;;;;;;2.20;1.10;;;20.40;39.20;;;;;;5050974;28;20183;-92
2022/04/03 10:34:46;;;;;;;1.60;1.00;;;20.20;39.30;;;;;;5051129;28;20203;-92
2022/04/03 10:37:30;;;;;;;1.57;1.10;;;20.00;39.50;;;;;;5052272;28;20468;-92
2022/04/03 10:40:17;;;;;;;4.63;1.50;;;19.90;39.70;;;;;;5052899;28;20172;-92
2022/04/03 10:42:58;;;;;;;2.73;1.20;;;19.80;39.90;;;;;;5052967;28;20163;-92
2022/04/03 10:45:30;;;;;;;6.67;1.40;;;19.70;39.90;;;;;;5050599;28;20602;-92
2022/04/03 10:48:20;;;;;;;2.97;1.37;;;19.80;40.00;;;;;;5051151;28;20192;-92
2022/04/03 10:51:05;;;;;;;4.03;1.30;;;20.10;39.90;;;;;;5051707;28;20207;-92
2022/04/03 10:53:37;;;;;;;3.90;1.23;;;20.60;39.40;;;;;;5051992;28;20553;-92
2022/04/03 10:56:11;;;;;;;3.03;1.10;;;21.20;38.90;;;;;;5052335;28;20265;-92
2022/04/03 10:58:47;;;;;;;4.57;1.20;;;21.90;38.10;;;;;;5051241;28;20285;-92
2022/04/03 11:01:29;;;;;;;1.73;1.07;;;22.50;37.40;;;;;;5052415;28;20261;-92
2022/04/03 11:04:00;;;;;;;2.33;1.60;;;22.90;37.00;;;;;;5050830;28;20189;-92
2022/04/03 11:06:31;;;;;;;2.13;1.30;;;23.20;36.70;;;;;;5050329;28;20190;-92
2022/04/03 11:08:58;;;;;;;3.23;1.50;;;23.50;36.40;;;;;;5050531;28;20246;-92
2022/04/03 11:11:34;;;;;;;4.10;1.17;;;23.60;36.30;;;;;;5050044;28;20202;-91
2022/04/03 11:13:59;;;;;;;2.57;1.23;;;23.90;36.10;;;;;;5051451;28;20487;-91
2022/04/03 11:16:26;;;;;;;1.97;1.43;;;23.80;36.00;;;;;;5050991;28;20170;-91
2022/04/03 11:18:52;;;;;;;5.07;1.30;;;23.70;36.30;;;;;;5051228;28;20164;-92
2022/04/03 11:21:26;;;;;;;3.00;1.37;;;23.50;36.20;;;;;;5050586;28;20201;-92
2022/04/03 11:24:21;;;;;;;1.40;1.10;;;23.20;36.40;;;;;;5051180;28;20171;-92
2022/04/03 11:26:48;;;;;;;2.23;1.13;;;23.00;36.70;;;;;;5038143;28;20195;-91
2022/04/03 11:29:13;;;;;;;2.73;1.30;;;22.80;37.00;;;;;;5050540;28;20659;-91
2022/04/03 11:31:41;;;;;;;3.37;1.00;;;22.50;37.20;;;;;;5051083;28;20172;-91
2022/04/03 11:34:06;;;;;;;4.73;1.60;;;22.30;37.50;;;;;;5051267;28;20445;-91
2022/04/03 11:36:33;;;;;;;2.23;1.30;;;22.10;37.70;;;;;;5050039;28;20335;-91
2022/04/03 11:39:00;;;;;;;3.13;1.30;;;21.80;37.90;;;;;;5051778;28;20536;-91
2022/04/03 11:41:35;;;;;;;2.27;1.20;;;21.50;38.20;;;;;;5049464;28;20227;-92
2022/04/03 11:44:02;;;;;;;2.17;1.37;;;21.30;38.50;;;;;;5050058;28;20436;-91
2022/04/03 11:46:36;;;;;;;3.97;1.30;;;21.10;38.70;;;;;;5050988;28;20271;-92
2022/04/03 11:49:13;;;;;;;1.30;0.90;;;20.90;38.90;;;;;;5050744;28;20176;-91
2022/04/03 11:51:40;;;;;;;2.10;1.20;;;20.70;39.10;;;;;;5051330;28;20176;-93
2022/04/03 11:54:06;;;;;;;1.70;1.10;;;20.60;39.30;;;;;;5050982;28;20254;-93
2022/04/03 11:56:35;;;;;;;2.83;1.40;;;20.50;39.50;;;;;;5051320;28;20372;-92
2022/04/03 11:59:03;;;;;;;2.67;1.10;;;20.40;39.70;;;;;;5051163;28;20202;-93
2022/04/03 12:01:31;;;;;;;5.60;1.37;;;20.20;39.80;;;;;;5051248;28;20179;-92
2022/04/03 12:04:00;;;;;;;2.60;1.10;;;20.20;39.90;;;;;;5052302;28;20171;-93
2022/04/03 12:06:26;;;;;;;1.93;1.13;;;20.10;40.00;;;;;;5050342;28;20226;-93
2022/04/03 12:08:52;;;;;;;2.33;1.23;;;20.10;40.10;;;;;;5050831;28;20463;-93
2022/04/03 12:11:27;;;;;;;2.53;1.10;;;20.20;40.00;;;;;;5052215;28;20234;-93
2022/04/03 12:13:55;;;;;;;3.67;1.13;;;20.50;39.90;;;;;;5054161;28;20204;-93
2022/04/03 12:16:23;;;;;;;2.70;1.20;;;20.80;39.60;;;;;;5052783;28;20172;-93
2022/04/03 12:19:00;;;;;;;1.40;0.97;;;21.20;39.20;;;;;;5052152;28;20168;-93
2022/04/03 12:21:40;;;;;;;2.67;1.30;;;21.80;38.70;;;;;;5052767;28;20281;-92
2022/04/03 12:24:08;;;;;;;2.43;1.17;;;22.20;38.10;;;;;;5050027;28;20266;-93
2022/04/03 12:26:36;;;;;;;1.73;1.07;;;22.40;37.80;;;;;;5051159;28;20453;-93
2022/04/03 12:29:05;;;;;;;3.50;1.27;;;22.40;37.80;;;;;;5049277;28;20176;-92
2022/04/03 12:31:32;;;;;;;2.60;1.03;;;22.50;37.70;;;;;;5048605;28;20545;-92
2022/04/03 12:34:12;;;;;;;2.00;1.23;;;22.70;37.70;;;;;;5051062;28;20219;-93
2022/04/03 12:36:49;;;;;;;2.33;1.00;;;22.60;37.60;;;;;;5050073;28;20174;-93
2022/04/03 12:39:40;;;;;;;1.87;1.10;;;22.50;37.70;;;;;;5051707;28;20193;-93
2022/04/03 12:42:08;;;;;;;1.63;1.10;;;22.20;37.90;;;;;;5050886;28;20182;-93
2022/04/03 12:44:49;;;;;;;3.03;1.00;;;22.00;38.10;;;;;;5050256;28;20177;-93
2022/04/03 12:47:20;;;;;;;1.87;1.10;;;21.80;38.40;;;;;;5050875;28;20183;-92
2022/04/03 12:50:10;;;;;;;2.27;1.20;;;21.60;38.60;;;;;;5050383;28;20175;-93
2022/04/03 12:52:38;;;;;;;1.30;0.97;;;21.40;38.80;;;;;;5048302;28;20587;-93